首页
METAR-TAF:

METAR-TAF

机场 :

西沃萨古尔·拉姆古兰爵士国际机场

毛里求斯, 毛里求斯

纬度: 20-26S, 经度: 057-40E, 海拔: 55米

当前天气观测

该预报发布于31分钟前的17:00 UTC
风速10节,风向东南,有时为23节阵风
温度 24°C
湿度 89%
气压 1019 hPa
能見度: 4000
少量云层高于1000英尺
多云层高于1500英尺
多云层高于10000英尺
小雨,

METAR: FIMP 291700Z 14010G23KT 4000N -RA FEW010 BKN015 BKN100 24/22 Q1019

时间: 21:31 (17:31 UTC)

预报

该预报发布于6小时和26分钟前的11:05 UTC
预报有效从29日的 12点(UTC)到 30日的 18点(UTC)
风速15节,风向东南,有时为25节阵风
能見度: 6000
少量云层高于800英尺
多云层高于1500英尺
小雨
短暂存在
从 29日的 18点(UTC)到 30日的 03点(UTC)
能見度: 2000
少量云层高于600英尺
多云层高于1400英尺
雨,

TAF: FIMP 291105Z 2912/3018 14015G25KT 6000 -RA FEW008 BKN015 TEMPO 2918/3003 2000 RA FEW006 BKN014

超过4000个机场的气象观测和天气预报(METAR&TAF报告)。

可查询的气象台以黄色和红色小点在地图上表示。

将鼠标移到小点上方,可查看气象台名称。

然后点击查看天气观测和预报。

如需切换地图:点击带黑十字的绿色按钮放大地图;点击带横线的绿色按钮缩小地图;或者点击绿色箭头查看邻近地区的地图。


METAR-TAF: